• Join FlightAware (Why Join?)
  • Login
  • US Flag 
03:55PM EDT


 

Airport Tracker/Info


-or-


 

Live Flight TrackerFlight Track Log ✈ ASQ6117 ✈ 20-Feb-2014 ✈ KJAX - KORD

Flight Track Log - Related Links

Times and Time Zones

All times are in EST time to prevent confusion due to time zone crossing. See the ASQ6117 flight status page for this flight to view local times or setup timezone preferences in your user account.

Time Position Orientation Groundspeed Altitude Reporting Facility
EST Latitude Longitude Course Direction KTS MPH feet Rate Location/Type
06:10AM 30.5069 -81.6653 10° North 166 191 700  Level Jacksonville Center
06:10AM 30.5153 -81.6483 60° Northeast 173 199 1,300 1,800 Climbing Jacksonville Center
06:11AM 30.5375 -81.5853 68° East 247 284 3,100 2,160 Climbing Jacksonville Center
06:12AM 30.6019 -81.5483 26° Northeast 281 323 5,700 2,400 Climbing Jacksonville Center
06:12AM 30.6269 -81.5456 North 283 326 6,200 2,520 Climbing Jacksonville Center
06:13AM 30.8965 -81.5101 23° Northeast  Level FlightAware Approximate
06:13AM 30.7019 -81.5275 12° North 293 337 8,900  Level Jacksonville Center
06:14AM 30.9992 -81.4637 19° North  Level FlightAware Approximate
06:14AM 30.7831 -81.5094 11° North 293 337 11,200  Level Jacksonville Center
06:15AM 31.1014 -81.4231 10° North  Level FlightAware Approximate
06:15AM 30.8747 -81.4886 11° North 298 343 12,300  Level Jacksonville Center
06:16AM 30.9789 -81.4653 11° North 341 392 13,600 1,440 Climbing Jacksonville Center
06:17AM 31.0831 -81.4589 North 365 420 15,200 1,500 Climbing Jacksonville Center
06:18AM 31.1878 -81.4719 354° North 383 441 16,700 1,380 Climbing Jacksonville Center
06:19AM 31.2861 -81.4850 354° North 390 449 18,000 1,440 Climbing Jacksonville Center
06:20AM 31.3989 -81.4956 355° North 385 443 19,600 1,440 Climbing Jacksonville Center
06:21AM 31.4972 -81.5061 355° North 385 443 20,900 1,380 Climbing Jacksonville Center
06:22AM 31.6122 -81.5217 353° North 390 449 22,400 1,380 Climbing Jacksonville Center
06:23AM 31.7103 -81.5347 354° North 390 449 23,700 1,440 Climbing Jacksonville Center
06:24AM 31.8275 -81.5478 355° North 388 447 25,300 1,500 Climbing Jacksonville Center
06:25AM 31.9319 -81.5608 354° North 388 447 26,700 1,380 Climbing Jacksonville Center
06:26AM 32.0239 -81.5717 354° North 383 441 28,100 1,500 Climbing Jacksonville Center
06:27AM 32.1369 -81.5872 353° North 365 420 29,700 1,500 Climbing Jacksonville Center
06:28AM 32.2331 -81.5983 354° North 360 414 31,100 1,380 Climbing Jacksonville Center
06:29AM 32.3228 -81.6092 354° North 354 407 32,500 1,500 Climbing Jacksonville Center
06:30AM 32.4294 -81.6225 354° North 348 400 34,100 1,200 Climbing Jacksonville Center
06:31AM 32.5236 -81.6336 354° North 348 400 35,000 420 Climbing Jacksonville Center
06:32AM 32.6114 -81.6447 354° North 348 400 35,000  Level Jacksonville Center
06:33AM 32.7136 -81.6556 355° North 364 419 35,000  Level Jacksonville Center
06:34AM 32.8267 -81.6689 354° North 380 437 35,000  Level Jacksonville Center
06:35AM 32.9500 -81.6844 354° North 397 457 35,000  Level Jacksonville Center
06:36AM 33.0606 -81.6981 354° North 414 476 35,000  Level Jacksonville Center
06:37AM 33.1756 -81.7111 355° North 421 484 35,000  Level Jacksonville Center
06:38AM 33.2947 -81.7222 356° North 421 484 35,000  Level Jacksonville Center
06:41AM 33.5644 -81.7578 354° North 412 474 35,000  Level Atlanta Center
06:42AM 33.6836 -81.7719 354° North 412 474 35,000  Level Atlanta Center
06:43AM 33.7967 -81.7867 354° North 417 480 35,000  Level Atlanta Center
06:44AM 33.9136 -81.8036 353° North 417 480 35,000  Level Atlanta Center
06:45AM 34.0308 -81.8156 355° North 417 480 35,000  Level Atlanta Center
06:46AM 34.1458 -81.8300 354° North 417 480 35,000  Level Atlanta Center
06:47AM 34.2756 -81.8467 354° North 422 486 35,000 420 Level Atlanta Center
06:48AM 34.3886 -81.8639 353° North 422 486 35,900 480 Climbing Atlanta Center
06:49AM 34.5058 -81.8786 354° North 422 486 36,000  Climbing Atlanta Center
06:50AM 34.6186 -81.8933 354° North 422 486 36,000  Level Atlanta Center
06:51AM 34.7256 -81.9133 351° North 422 486 36,000  Level Atlanta Center
06:52AM 34.8425 -81.9306 353° North 422 486 36,000  Level Atlanta Center
06:53AM 34.9556 -81.9403 356° North 422 486 36,000  Level Atlanta Center
06:54AM 35.0683 -81.9528 355° North 417 480 36,000  Level Atlanta Center
06:55AM 35.1833 -81.9678 354° North 412 474 36,000  Level Atlanta Center
06:56AM 35.2983 -81.9825 354° North 407 468 36,000  Level Atlanta Center
06:57AM 35.4092 -81.9950 355° North 412 474 36,000  Level Atlanta Center
06:58AM 35.5242 -82.0128 353° North 407 468 36,000  Level Atlanta Center
06:59AM 35.6350 -82.0253 355° North 407 468 36,000  Level Atlanta Center
07:00AM 35.7458 -82.0431 353° North 407 468 36,000  Level Atlanta Center
07:01AM 35.8628 -82.0556 355° North 401 461 36,000  Level Atlanta Center
07:02AM 35.9736 -82.0733 353° North 406 467 36,000  Level Atlanta Center
07:04AM 36.2300 -82.1014 355° North 407 468 36,000  Level Indianapolis Center
07:05AM 36.3422 -82.1169 354° North 407 468 36,000  Level Indianapolis Center
07:06AM 36.4497 -82.1436 349° North 402 463 36,000  Level Indianapolis Center
07:07AM 36.5328 -82.2189 324° Northwest 372 428 36,000  Level Indianapolis Center
07:08AM 36.6144 -82.2967 323° Northwest 371 427 36,000  Level Indianapolis Center
07:09AM 36.6956 -82.3744 322° Northwest 370 426 36,000  Level Indianapolis Center
07:10AM 36.7764 -82.4522 322° Northwest 370 426 36,000  Level Indianapolis Center
07:11AM 36.8719 -82.5442 322° Northwest 370 426 36,000  Level Indianapolis Center
07:12AM 36.9536 -82.6233 322° Northwest 370 426 36,000  Level Indianapolis Center
07:13AM 37.0353 -82.7028 322° Northwest 371 427 36,000  Level Indianapolis Center
07:14AM 37.1181 -82.7819 323° Northwest 374 430 36,000  Level Indianapolis Center
07:15AM 37.2003 -82.8625 322° Northwest 375 432 36,000  Level Indianapolis Center
07:16AM 37.2825 -82.9433 322° Northwest 375 432 36,000  Level Indianapolis Center
07:17AM 37.3664 -83.0247 322° Northwest 376 433 36,000  Level Indianapolis Center
07:18AM 37.4486 -83.1067 322° Northwest 376 433 36,000  Level Indianapolis Center
07:19AM 37.5325 -83.1886 322° Northwest 376 433 36,000  Level Indianapolis Center
07:20AM 37.6286 -83.2828 322° Northwest 377 434 36,000  Level Indianapolis Center
07:21AM 37.7111 -83.3664 321° Northwest 377 434 36,000  Level Indianapolis Center
07:22AM 37.7953 -83.4475 323° Northwest 377 434 36,000  Level Indianapolis Center
07:23AM 37.8775 -83.5306 321° Northwest 377 434 36,000  Level Indianapolis Center
07:24AM 37.9600 -83.6100 323° Northwest 377 434 36,000  Level Indianapolis Center
07:25AM 38.0422 -83.6928 322° Northwest 377 434 36,000  Level Indianapolis Center
07:26AM 38.1239 -83.7778 321° Northwest 377 434 36,000  Level Indianapolis Center
07:27AM 38.2069 -83.8583 323° Northwest 377 434 36,000  Level Indianapolis Center
07:28AM 38.2956 -83.9336 326° Northwest 380 437 36,000  Level Indianapolis Center
07:29AM 38.3878 -84.0028 330° Northwest 382 440 36,000  Level Indianapolis Center
07:30AM 38.4789 -84.0731 329° Northwest 383 441 36,000  Level Indianapolis Center
07:31AM 38.5864 -84.1550 329° Northwest 383 441 36,000  Level Indianapolis Center
07:32AM 38.6714 -84.2236 328° Northwest 382 440 36,000  Level Indianapolis Center
07:33AM 38.7206 -84.3311 300° West 367 422 36,000  Level Indianapolis Center
07:34AM 38.7514 -84.4450 289° West 346 398 36,000  Level Indianapolis Center
07:35AM 38.7819 -84.5608 289° West 345 397 36,000  Level Indianapolis Center
07:36AM 38.8114 -84.6781 288° West 345 397 36,000  Level Indianapolis Center
07:37AM 38.8428 -84.7922 289° West 345 397 36,000  Level Indianapolis Center
07:38AM 38.8833 -84.9300 291° West 345 397 36,000  Level Indianapolis Center
07:39AM 38.9161 -85.0453 290° West 345 397 36,000  Level Indianapolis Center
07:40AM 38.9481 -85.1603 290° West 345 397 36,000  Level Indianapolis Center
07:41AM 38.9786 -85.2672 290° West 326 375 36,000  Level Indianapolis Center
07:42AM 39.0089 -85.3706 291° West 316 364 36,000  Level Indianapolis Center
07:43AM 39.0394 -85.4700 292° West 306 352 36,000  Level Indianapolis Center
07:45AM 39.0706 -85.5669 292° West 298 343 36,000  Level Indianapolis Center
07:46AM 39.1003 -85.6625 292° West 293 337 36,000  Level Indianapolis Center
07:47AM 39.1292 -85.7567 292° West 290 334 36,000  Level Indianapolis Center
07:48AM 39.1661 -85.8692 293° West 287 330 36,000  Level Indianapolis Center
07:49AM 39.1961 -85.9603 293° West 282 325 36,000  Level Indianapolis Center
07:50AM 39.2267 -86.0531 293° West 282 325 36,000  Level Indianapolis Center
07:51AM 39.2567 -86.1447 293° West 281 323 36,000  Level Indianapolis Center
07:52AM 39.2886 -86.2386 294° West 282 325 36,000  Level Indianapolis Center
07:53AM 39.3214 -86.3394 293° West 297 342 36,000  Level Indianapolis Center
07:54AM 39.3558 -86.4417 294° West 306 352 36,000  Level Indianapolis Center
07:55AM 39.3939 -86.5553 293° West 311 358 36,000  Level Indianapolis Center
07:56AM 39.3864 -86.6578 265° West 317 365 36,000 -300 Level Indianapolis Center
07:57AM 39.3881 -86.7717 271° West 317 365 35,500 -1,020 Descending Indianapolis Center
07:58AM 39.3881 -86.9083 270° West 317 365 34,000 -1,320 Descending Indianapolis Center
07:59AM 39.3892 -87.0181 271° West 312 359 32,800 -1,140 Descending Indianapolis Center
08:00AM 39.3889 -87.1306 270° West 312 359 31,700 -1,140 Descending Indianapolis Center
08:01AM 39.3903 -87.2564 271° West 342 394 30,500 -840 Descending Indianapolis Center
08:02AM 39.3908 -87.3881 270° West 363 418 30,000 -300 Descending Indianapolis Center
08:03AM 39.3908 -87.5217 270° West 368 423 30,000  Level Indianapolis Center
08:04AM 39.3917 -87.6556 271° West 370 426 30,000  Level Indianapolis Center
08:05AM 39.3908 -87.7889 270° West 372 428 30,000  Level Indianapolis Center
08:06AM 39.3911 -87.9492 270° West 372 428 30,000  Level Indianapolis Center
08:07AM 39.3875 -88.0814 268° West 372 428 30,000  Level Indianapolis Center
08:08AM 39.3669 -88.1325 243° Southwest 368 423 30,000  Level Kansas City Center
08:09AM 39.3342 -88.2556 251° West 364 419 30,000 -120 Level Kansas City Center
08:10AM 39.3017 -88.3803 251° West 365 420 29,800 -780 Descending Kansas City Center
08:11AM 39.2694 -88.4972 250° West 353 406 28,500 -1,380 Descending Kansas City Center
08:12AM 39.2411 -88.6119 252° West 316 364 27,000 -1,260 Descending Kansas City Center
08:13AM 39.2119 -88.7186 251° West 315 362 26,000 -1,020 Descending Kansas City Center
08:14AM 39.1822 -88.8242 250° West 315 362 25,000 -1,020 Descending Kansas City Center
08:15AM 39.1558 -88.9286 252° West 312 359 24,000 -960 Descending Kansas City Center
08:16AM 39.1292 -89.0328 252° West 308 354 23,100 -1,140 Descending Kansas City Center
08:17AM 39.1014 -89.1361 251° West 308 354 21,800 -1,380 Descending Kansas City Center
08:18AM 39.0778 -89.2367 253° West 296 341 20,300 -1,620 Descending Kansas City Center
08:19AM 39.0831 -89.3392 274° West 290 334 18,600 -1,980 Descending Kansas City Center
08:20AM 39.0947 -89.4550 277° West 275 316 16,300 -1,740 Descending Kansas City Center
08:21AM 39.0919 -89.5464 268° West 263 303 15,100 -660 Descending Kansas City Center
08:22AM 39.0711 -89.6356 253° West 262 302 15,000 -480 Descending Kansas City Center
08:23AM 39.0508 -89.7214 253° West 255 293 14,200 -1,440 Descending Kansas City Center
08:24AM 39.0311 -89.8031 253° West 241 277 12,200 -2,040 Descending Kansas City Center
08:25AM 39.0114 -89.8786 251° West 231 266 10,100 -1,860 Descending Kansas City Center
08:26AM 38.9925 -89.9561 253° West 229 264 8,500 -1,080 Descending Kansas City Center
08:27AM 38.9722 -90.0369 252° West 231 266 8,000 -780 Descending Kansas City Center
08:28AM 38.9525 -90.1172 252° West 234 269 7,000 -1,080 Descending Kansas City Center
08:29AM 38.9283 -90.2136 252° West 235 270 5,800 -1,080 Descending Kansas City Center
08:30AM 38.9089 -90.2883 252° West 232 267 4,800 -1,020 Descending Kansas City Center
08:31AM 38.8908 -90.3594 252° West 221 254 3,800 -1,020 Descending Kansas City Center
08:32AM 38.8689 -90.4356 250° West 225 259 2,800 -660 Descending Kansas City Center
08:33AM 38.8272 -90.4831 222° Southwest 207 238 2,500 -360 Descending Kansas City Center
08:34AM 38.7903 -90.4519 147° Southeast 188 216 2,100 -540 Descending Kansas City Center
08:35AM 38.7703 -90.4128 123° Southeast 155 178 1,400 -780 Descending Kansas City Center
08:36AM 38.7514 -90.3756 123° Southeast 135 155 600 -840 Descending Kansas City Center